sensor_id;sensor_type;location;lat;lon;timestamp;pressure;altitude;pressure_sealevel;temperature;humidity
20027;BME280;10174;42.688;23.344;2023-05-21T00:00:35;95130.50;;;12.95;100.00
20027;BME280;10174;42.688;23.344;2023-05-21T00:03:00;95180.91;;;13.34;100.00
20027;BME280;10174;42.688;23.344;2023-05-21T00:05:25;95075.16;;;12.74;100.00
20027;BME280;10174;42.688;23.344;2023-05-21T00:07:51;95163.19;;;13.23;100.00
20027;BME280;10174;42.688;23.344;2023-05-21T00:10:19;95069.34;;;12.61;100.00
20027;BME280;10174;42.688;23.344;2023-05-21T00:12:44;95148.97;;;13.12;100.00
20027;BME280;10174;42.688;23.344;2023-05-21T00:15:11;95171.72;;;13.35;100.00
20027;BME280;10174;42.688;23.344;2023-05-21T00:17:37;95168.78;;;13.32;100.00
20027;BME280;10174;42.688;23.344;2023-05-21T00:20:05;95125.63;;;13.03;100.00
20027;BME280;10174;42.688;23.344;2023-05-21T00:22:31;95148.69;;;13.14;100.00
20027;BME280;10174;42.688;23.344;2023-05-21T00:24:58;95165.94;;;13.18;100.00
20027;BME280;10174;42.688;23.344;2023-05-21T00:27:23;95167.00;;;13.17;100.00
20027;BME280;10174;42.688;23.344;2023-05-21T00:29:49;95150.44;;;12.99;100.00
20027;BME280;10174;42.688;23.344;2023-05-21T00:32:14;95153.50;;;12.82;100.00
20027;BME280;10174;42.688;23.344;2023-05-21T00:34:39;95169.59;;;12.98;100.00
20027;BME280;10174;42.688;23.344;2023-05-21T00:37:05;95170.69;;;12.97;100.00
20027;BME280;10174;42.688;23.344;2023-05-21T00:39:30;95167.75;;;12.88;100.00
20027;BME280;10174;42.688;23.344;2023-05-21T00:41:55;95146.38;;;12.68;100.00
20027;BME280;10174;42.688;23.344;2023-05-21T00:44:21;95158.16;;;12.72;100.00
20027;BME280;10174;42.688;23.344;2023-05-21T00:46:48;95161.16;;;12.70;100.00
20027;BME280;10174;42.688;23.344;2023-05-21T00:49:17;95163.31;;;12.68;100.00
20027;BME280;10174;42.688;23.344;2023-05-21T00:51:43;95131.41;;;12.46;100.00
20027;BME280;10174;42.688;23.344;2023-05-21T00:54:10;95166.34;;;12.56;100.00
20027;BME280;10174;42.688;23.344;2023-05-21T00:56:36;95160.44;;;12.54;100.00
20027;BME280;10174;42.688;23.344;2023-05-21T00:59:01;95128.22;;;12.39;100.00
20027;BME280;10174;42.688;23.344;2023-05-21T01:01:30;95137.06;;;12.44;100.00
20027;BME280;10174;42.688;23.344;2023-05-21T01:03:59;95159.84;;;12.62;100.00
20027;BME280;10174;42.688;23.344;2023-05-21T01:06:26;95158.72;;;12.69;100.00
20027;BME280;10174;42.688;23.344;2023-05-21T01:08:53;95031.81;;;11.86;100.00
20027;BME280;10174;42.688;23.344;2023-05-21T01:11:29;95158.16;;;12.72;100.00
20027;BME280;10174;42.688;23.344;2023-05-21T01:13:57;95164.63;;;12.76;100.00
20027;BME280;10174;42.688;23.344;2023-05-21T01:16:23;95143.38;;;12.69;100.00
20027;BME280;10174;42.688;23.344;2023-05-21T01:18:49;95149.47;;;12.85;100.00
20027;BME280;10174;42.688;23.344;2023-05-21T01:21:16;95054.53;;;12.19;100.00
20027;BME280;10174;42.688;23.344;2023-05-21T01:23:42;95060.41;;;12.26;100.00
20027;BME280;10174;42.688;23.344;2023-05-21T01:26:08;95118.88;;;12.65;100.00
20027;BME280;10174;42.688;23.344;2023-05-21T01:28:36;95079.13;;;12.47;100.00
20027;BME280;10174;42.688;23.344;2023-05-21T01:31:19;95146.19;;;12.88;100.00
20027;BME280;10174;42.688;23.344;2023-05-21T01:33:50;95124.72;;;12.78;100.00
20027;BME280;10174;42.688;23.344;2023-05-21T01:36:23;95127.31;;;12.93;100.00
20027;BME280;10174;42.688;23.344;2023-05-21T01:38:59;95139.13;;;12.97;100.00
20027;BME280;10174;42.688;23.344;2023-05-21T01:41:26;95127.31;;;12.93;100.00
20027;BME280;10174;42.688;23.344;2023-05-21T01:43:55;95054.38;;;12.40;100.00
20027;BME280;10174;42.688;23.344;2023-05-21T01:46:22;95125.72;;;12.87;100.00
20027;BME280;10174;42.688;23.344;2023-05-21T01:48:50;95132.41;;;12.95;100.00
20027;BME280;10174;42.688;23.344;2023-05-21T01:51:16;95141.88;;;12.92;100.00
20027;BME280;10174;42.688;23.344;2023-05-21T01:53:43;95113.63;;;12.79;100.00
20027;BME280;10174;42.688;23.344;2023-05-21T01:56:09;95131.66;;;12.89;100.00
20027;BME280;10174;42.688;23.344;2023-05-21T01:58:35;95125.75;;;12.82;100.00
20027;BME280;10174;42.688;23.344;2023-05-21T02:01:01;95005.56;;;12.17;100.00
20027;BME280;10174;42.688;23.344;2023-05-21T02:03:27;95120.88;;;12.89;100.00
20027;BME280;10174;42.688;23.344;2023-05-21T02:05:55;95116.03;;;12.86;100.00
20027;BME280;10174;42.688;23.344;2023-05-21T02:08:20;95107.91;;;12.91;100.00
20027;BME280;10174;42.688;23.344;2023-05-21T02:10:48;95108.22;;;12.85;100.00
20027;BME280;10174;42.688;23.344;2023-05-21T02:13:13;95095.63;;;12.75;100.00
20027;BME280;10174;42.688;23.344;2023-05-21T02:15:38;95119.81;;;12.85;100.00
20027;BME280;10174;42.688;23.344;2023-05-21T02:18:04;95120.88;;;12.84;100.00
20027;BME280;10174;42.688;23.344;2023-05-21T02:20:30;95125.44;;;12.89;100.00
20027;BME280;10174;42.688;23.344;2023-05-21T02:22:56;95105.94;;;12.62;100.00
20027;BME280;10174;42.688;23.344;2023-05-21T02:25:21;95096.06;;;12.53;100.00
20027;BME280;10174;42.688;23.344;2023-05-21T02:27:47;95120.53;;;12.61;100.00
20027;BME280;10174;42.688;23.344;2023-05-21T02:30:16;95106.38;;;12.40;100.00
20027;BME280;10174;42.688;23.344;2023-05-21T02:32:42;95128.91;;;12.55;100.00
20027;BME280;10174;42.688;23.344;2023-05-21T02:35:10;95131.44;;;12.41;100.00
20027;BME280;10174;42.688;23.344;2023-05-21T02:37:36;95111.44;;;12.52;100.00
20027;BME280;10174;42.688;23.344;2023-05-21T02:40:02;95123.38;;;12.36;100.00
20027;BME280;10174;42.688;23.344;2023-05-21T02:42:30;95119.31;;;12.43;100.00
20027;BME280;10174;42.688;23.344;2023-05-21T02:44:55;95078.78;;;12.19;100.00
20027;BME280;10174;42.688;23.344;2023-05-21T02:47:20;95118.25;;;12.39;100.00
20027;BME280;10174;42.688;23.344;2023-05-21T02:49:48;95051.19;;;11.93;100.00
20027;BME280;10174;42.688;23.344;2023-05-21T02:52:14;95109.94;;;12.30;100.00
20027;BME280;10174;42.688;23.344;2023-05-21T02:54:40;95074.78;;;12.11;100.00
20027;BME280;10174;42.688;23.344;2023-05-21T02:57:05;95108.81;;;12.37;100.00
20027;BME280;10174;42.688;23.344;2023-05-21T02:59:31;95106.66;;;12.39;100.00
20027;BME280;10174;42.688;23.344;2023-05-21T03:01:56;95095.72;;;12.25;100.00
20027;BME280;10174;42.688;23.344;2023-05-21T03:04:22;95107.88;;;12.17;100.00
20027;BME280;10174;42.688;23.344;2023-05-21T03:06:48;95104.34;;;12.17;100.00
20027;BME280;10174;42.688;23.344;2023-05-21T03:09:16;95105.75;;;12.14;100.00
20027;BME280;10174;42.688;23.344;2023-05-21T03:11:42;95110.06;;;12.10;100.00
20027;BME280;10174;42.688;23.344;2023-05-21T03:14:07;95124.31;;;12.16;100.00
20027;BME280;10174;42.688;23.344;2023-05-21T03:16:34;95107.88;;;12.12;100.00
20027;BME280;10174;42.688;23.344;2023-05-21T03:18:59;95045.38;;;11.65;100.00
20027;BME280;10174;42.688;23.344;2023-05-21T03:21:25;95115.41;;;12.15;100.00
20027;BME280;10174;42.688;23.344;2023-05-21T03:23:56;95118.09;;;12.15;100.00
20027;BME280;10174;42.688;23.344;2023-05-21T03:26:23;95105.75;;;12.09;100.00
20027;BME280;10174;42.688;23.344;2023-05-21T03:28:51;95112.72;;;12.15;100.00
20027;BME280;10174;42.688;23.344;2023-05-21T03:31:17;95111.97;;;12.09;100.00
20027;BME280;10174;42.688;23.344;2023-05-21T03:33:43;95104.63;;;12.20;100.00
20027;BME280;10174;42.688;23.344;2023-05-21T03:36:08;95119.94;;;12.25;100.00
20027;BME280;10174;42.688;23.344;2023-05-21T03:38:33;95136.25;;;12.44;100.00
20027;BME280;10174;42.688;23.344;2023-05-21T03:40:59;95121.25;;;12.33;100.00
20027;BME280;10174;42.688;23.344;2023-05-21T03:43:24;95125.44;;;12.54;100.00
20027;BME280;10174;42.688;23.344;2023-05-21T03:45:49;95128.41;;;12.53;100.00
20027;BME280;10174;42.688;23.344;2023-05-21T03:48:15;95122.44;;;12.56;100.00
20027;BME280;10174;42.688;23.344;2023-05-21T03:50:40;95124.81;;;12.68;100.00
20027;BME280;10174;42.688;23.344;2023-05-21T03:53:06;95120.94;;;12.79;100.00
20027;BME280;10174;42.688;23.344;2023-05-21T03:55:31;95065.63;;;12.52;100.00
20027;BME280;10174;42.688;23.344;2023-05-21T03:57:56;95129.53;;;12.81;100.00
20027;BME280;10174;42.688;23.344;2023-05-21T04:00:22;95036.09;;;12.37;100.00
20027;BME280;10174;42.688;23.344;2023-05-21T04:02:47;95120.38;;;12.82;100.00
20027;BME280;10174;42.688;23.344;2023-05-21T04:05:13;95122.00;;;12.83;100.00
20027;BME280;10174;42.688;23.344;2023-05-21T04:07:38;95101.94;;;12.94;100.00
20027;BME280;10174;42.688;23.344;2023-05-21T04:10:04;95113.00;;;12.93;100.00
20027;BME280;10174;42.688;23.344;2023-05-21T04:12:29;95122.25;;;13.16;100.00
20027;BME280;10174;42.688;23.344;2023-05-21T04:14:55;95116.25;;;13.24;100.00
20027;BME280;10174;42.688;23.344;2023-05-21T04:17:21;95012.63;;;12.72;100.00
20027;BME280;10174;42.688;23.344;2023-05-21T04:19:46;95112.13;;;13.32;100.00
20027;BME280;10174;42.688;23.344;2023-05-21T04:22:11;95130.09;;;13.47;100.00
20027;BME280;10174;42.688;23.344;2023-05-21T04:24:37;95117.44;;;13.66;98.10
20027;BME280;10174;42.688;23.344;2023-05-21T04:27:03;95013.34;;;12.82;99.60
20027;BME280;10174;42.688;23.344;2023-05-21T04:29:28;95115.50;;;13.72;98.33
20027;BME280;10174;42.688;23.344;2023-05-21T04:31:55;95122.56;;;13.68;99.25
20027;BME280;10174;42.688;23.344;2023-05-21T04:34:20;95122.63;;;13.63;100.00
20027;BME280;10174;42.688;23.344;2023-05-21T04:36:46;95054.06;;;13.10;100.00
20027;BME280;10174;42.688;23.344;2023-05-21T04:39:12;95110.09;;;13.48;100.00
20027;BME280;10174;42.688;23.344;2023-05-21T04:41:38;95097.59;;;13.28;100.00
20027;BME280;10174;42.688;23.344;2023-05-21T04:44:06;95119.22;;;13.52;100.00
20027;BME280;10174;42.688;23.344;2023-05-21T04:46:32;95124.56;;;13.57;100.00
20027;BME280;10174;42.688;23.344;2023-05-21T04:48:59;95125.31;;;13.63;100.00
20027;BME280;10174;42.688;23.344;2023-05-21T04:51:27;95042.31;;;13.25;100.00
20027;BME280;10174;42.688;23.344;2023-05-21T04:53:52;95134.19;;;14.12;99.95
20027;BME280;10174;42.688;23.344;2023-05-21T04:56:18;95018.47;;;13.38;98.57
20027;BME280;10174;42.688;23.344;2023-05-21T04:58:47;95043.59;;;13.57;98.75
20027;BME280;10174;42.688;23.344;2023-05-21T05:01:16;95126.97;;;14.26;98.22
20027;BME280;10174;42.688;23.344;2023-05-21T05:03:44;95002.09;;;13.53;97.38
20027;BME280;10174;42.688;23.344;2023-05-21T05:06:09;95117.94;;;14.36;95.64
20027;BME280;10174;42.688;23.344;2023-05-21T05:08:35;95134.25;;;14.50;94.26
20027;BME280;10174;42.688;23.344;2023-05-21T05:11:00;95133.06;;;14.56;92.91
20027;BME280;10174;42.688;23.344;2023-05-21T05:13:26;95030.09;;;14.19;91.71
20027;BME280;10174;42.688;23.344;2023-05-21T05:15:51;94999.97;;;13.93;90.18
20027;BME280;10174;42.688;23.344;2023-05-21T05:18:18;95131.19;;;14.75;88.94
20027;BME280;10174;42.688;23.344;2023-05-21T05:20:44;94998.06;;;14.13;89.35
20027;BME280;10174;42.688;23.344;2023-05-21T05:23:11;95110.84;;;14.97;87.99
20027;BME280;10174;42.688;23.344;2023-05-21T05:25:36;95136.34;;;15.24;87.38
20027;BME280;10174;42.688;23.344;2023-05-21T05:28:01;95137.38;;;15.28;86.81
20027;BME280;10174;42.688;23.344;2023-05-21T05:30:27;95103.41;;;14.89;85.65
20027;BME280;10174;42.688;23.344;2023-05-21T05:32:52;95130.63;;;15.11;85.64
20027;BME280;10174;42.688;23.344;2023-05-21T05:35:18;95123.53;;;15.16;85.69
20027;BME280;10174;42.688;23.344;2023-05-21T05:37:43;95032.25;;;14.74;84.17
20027;BME280;10174;42.688;23.344;2023-05-21T05:40:08;95094.25;;;15.18;83.57
20027;BME280;10174;42.688;23.344;2023-05-21T05:42:34;95096.28;;;15.26;83.89
20027;BME280;10174;42.688;23.344;2023-05-21T05:44:59;95080.06;;;15.26;83.49
20027;BME280;10174;42.688;23.344;2023-05-21T05:47:25;95107.16;;;15.67;82.15
20027;BME280;10174;42.688;23.344;2023-05-21T05:49:50;95089.53;;;15.56;83.48
20027;BME280;10174;42.688;23.344;2023-05-21T05:52:16;95116.59;;;15.70;82.90
20027;BME280;10174;42.688;23.344;2023-05-21T05:54:41;95080.69;;;15.64;82.98
20027;BME280;10174;42.688;23.344;2023-05-21T05:57:06;95102.66;;;16.05;81.58
20027;BME280;10174;42.688;23.344;2023-05-21T05:59:32;95100.38;;;15.98;81.21
20027;BME280;10174;42.688;23.344;2023-05-21T06:01:58;95124.25;;;16.24;80.86
20027;BME280;10174;42.688;23.344;2023-05-21T06:04:24;95115.38;;;16.32;81.08
20027;BME280;10174;42.688;23.344;2023-05-21T06:06:50;95051.59;;;16.12;79.79
20027;BME280;10174;42.688;23.344;2023-05-21T06:09:16;95099.38;;;16.44;78.71
20027;BME280;10174;42.688;23.344;2023-05-21T06:11:42;95069.81;;;16.56;76.55
20027;BME280;10174;42.688;23.344;2023-05-21T06:14:07;95116.09;;;16.74;73.59
20027;BME280;10174;42.688;23.344;2023-05-21T06:16:32;95107.84;;;17.02;73.71
20027;BME280;10174;42.688;23.344;2023-05-21T06:18:58;95053.19;;;17.17;73.29
20027;BME280;10174;42.688;23.344;2023-05-21T06:21:23;95080.16;;;17.85;74.38
20027;BME280;10174;42.688;23.344;2023-05-21T06:23:49;95094.31;;;17.65;70.09
20027;BME280;10174;42.688;23.344;2023-05-21T06:26:14;95084.88;;;18.02;71.91
20027;BME280;10174;42.688;23.344;2023-05-21T06:28:39;95106.16;;;18.09;68.84
20027;BME280;10174;42.688;23.344;2023-05-21T06:31:05;95089.31;;;17.89;70.70
20027;BME280;10174;42.688;23.344;2023-05-21T06:33:30;95030.25;;;17.72;67.22
20027;BME280;10174;42.688;23.344;2023-05-21T06:35:56;95092.63;;;18.44;68.72
20027;BME280;10174;42.688;23.344;2023-05-21T06:38:21;95092.47;;;18.49;67.52
20027;BME280;10174;42.688;23.344;2023-05-21T06:40:46;95026.22;;;18.10;64.98
20027;BME280;10174;42.688;23.344;2023-05-21T06:43:12;95094.91;;;18.85;64.93
20027;BME280;10174;42.688;23.344;2023-05-21T06:45:38;95005.44;;;18.23;62.27
20027;BME280;10174;42.688;23.344;2023-05-21T06:48:04;95081.94;;;18.74;62.33
20027;BME280;10174;42.688;23.344;2023-05-21T06:50:29;95089.94;;;18.96;62.34
20027;BME280;10174;42.688;23.344;2023-05-21T06:52:54;95062.03;;;19.26;60.37
20027;BME280;10174;42.688;23.344;2023-05-21T06:55:20;95087.78;;;19.46;59.71
20027;BME280;10174;42.688;23.344;2023-05-21T06:57:45;95072.78;;;19.69;59.05
20027;BME280;10174;42.688;23.344;2023-05-21T07:00:11;95051.28;;;19.76;58.59
20027;BME280;10174;42.688;23.344;2023-05-21T07:02:37;95057.13;;;19.96;57.57
20027;BME280;10174;42.688;23.344;2023-05-21T07:05:02;95086.34;;;20.17;57.50
20027;BME280;10174;42.688;23.344;2023-05-21T07:07:28;95063.38;;;19.58;58.29
20027;BME280;10174;42.688;23.344;2023-05-21T07:09:53;95083.66;;;19.22;58.46
20027;BME280;10174;42.688;23.344;2023-05-21T07:12:18;95042.28;;;19.37;59.01
20027;BME280;10174;42.688;23.344;2023-05-21T07:14:44;95078.97;;;19.40;59.46
20027;BME280;10174;42.688;23.344;2023-05-21T07:17:09;95074.69;;;19.13;59.72
20027;BME280;10174;42.688;23.344;2023-05-21T07:19:35;95066.38;;;19.18;61.55
20027;BME280;10174;42.688;23.344;2023-05-21T07:22:02;95071.75;;;19.91;61.20
20027;BME280;10174;42.688;23.344;2023-05-21T07:24:27;95077.19;;;19.91;59.06
20027;BME280;10174;42.688;23.344;2023-05-21T07:26:53;95078.94;;;20.47;57.81
20027;BME280;10174;42.688;23.344;2023-05-21T07:29:18;95041.03;;;19.73;57.84
20027;BME280;10174;42.688;23.344;2023-05-21T07:31:44;95060.97;;;19.95;57.53
20027;BME280;10174;42.688;23.344;2023-05-21T07:34:09;95057.59;;;19.98;56.75
20027;BME280;10174;42.688;23.344;2023-05-21T07:36:35;95059.47;;;20.06;59.32
20027;BME280;10174;42.688;23.344;2023-05-21T07:39:01;95073.00;;;20.24;57.44
20027;BME280;10174;42.688;23.344;2023-05-21T07:41:26;95064.44;;;20.34;57.77
20027;BME280;10174;42.688;23.344;2023-05-21T07:43:52;94975.59;;;20.03;56.34
20027;BME280;10174;42.688;23.344;2023-05-21T07:46:17;95080.47;;;20.99;55.63
20027;BME280;10174;42.688;23.344;2023-05-21T07:48:43;95065.31;;;21.10;55.49
20027;BME280;10174;42.688;23.344;2023-05-21T07:51:08;95068.28;;;21.30;54.22
20027;BME280;10174;42.688;23.344;2023-05-21T07:53:34;94978.38;;;21.25;53.39
20027;BME280;10174;42.688;23.344;2023-05-21T07:55:59;95071.16;;;22.04;50.41
20027;BME280;10174;42.688;23.344;2023-05-21T07:58:25;95055.25;;;22.59;43.69
20027;BME280;10174;42.688;23.344;2023-05-21T08:00:50;95048.47;;;22.40;47.04
20027;BME280;10174;42.688;23.344;2023-05-21T08:03:16;95033.53;;;22.38;46.05
20027;BME280;10174;42.688;23.344;2023-05-21T08:05:43;95062.03;;;23.18;44.06
20027;BME280;10174;42.688;23.344;2023-05-21T08:08:13;94976.22;;;22.86;42.48
20027;BME280;10174;42.688;23.344;2023-05-21T08:10:38;95022.28;;;23.40;40.59
20027;BME280;10174;42.688;23.344;2023-05-21T08:13:04;95036.53;;;23.46;40.88
20027;BME280;10174;42.688;23.344;2023-05-21T08:15:29;95077.22;;;23.76;39.73
20027;BME280;10174;42.688;23.344;2023-05-21T08:17:55;95054.38;;;23.40;39.05
20027;BME280;10174;42.688;23.344;2023-05-21T08:20:20;95075.22;;;23.28;38.03
20027;BME280;10174;42.688;23.344;2023-05-21T08:22:45;94974.81;;;22.92;38.70
20027;BME280;10174;42.688;23.344;2023-05-21T08:25:12;95001.59;;;23.91;36.90
20027;BME280;10174;42.688;23.344;2023-05-21T08:27:37;95067.28;;;24.35;36.51
20027;BME280;10174;42.688;23.344;2023-05-21T08:30:04;95053.97;;;24.53;36.92
20027;BME280;10174;42.688;23.344;2023-05-21T08:32:29;95060.50;;;24.64;36.73
20027;BME280;10174;42.688;23.344;2023-05-21T08:34:55;95003.03;;;24.20;35.44
20027;BME280;10174;42.688;23.344;2023-05-21T08:37:21;95062.72;;;23.91;36.25
20027;BME280;10174;42.688;23.344;2023-05-21T08:39:47;95077.41;;;23.67;36.92
20027;BME280;10174;42.688;23.344;2023-05-21T08:42:27;95040.47;;;24.28;36.48
20027;BME280;10174;42.688;23.344;2023-05-21T08:44:58;95041.38;;;25.96;33.29
20027;BME280;10174;42.688;23.344;2023-05-21T08:47:25;95071.66;;;27.37;31.83
20027;BME280;10174;42.688;23.344;2023-05-21T08:49:52;95009.69;;;28.13;28.95
20027;BME280;10174;42.688;23.344;2023-05-21T08:52:18;95039.41;;;27.82;29.52
20027;BME280;10174;42.688;23.344;2023-05-21T08:54:45;95032.34;;;26.76;31.69
20027;BME280;10174;42.688;23.344;2023-05-21T08:57:11;95057.13;;;27.81;30.28
20027;BME280;10174;42.688;23.344;2023-05-21T08:59:38;95050.69;;;30.30;27.97
20027;BME280;10174;42.688;23.344;2023-05-21T09:02:09;95020.63;;;30.18;28.17
20027;BME280;10174;42.688;23.344;2023-05-21T09:04:38;95060.81;;;29.25;29.08
20027;BME280;10174;42.688;23.344;2023-05-21T09:07:05;94999.91;;;29.04;28.51
20027;BME280;10174;42.688;23.344;2023-05-21T09:09:40;95064.06;;;29.49;29.50
20027;BME280;10174;42.688;23.344;2023-05-21T09:12:09;95044.69;;;29.42;29.15
20027;BME280;10174;42.688;23.344;2023-05-21T09:14:36;94985.69;;;28.21;29.53
20027;BME280;10174;42.688;23.344;2023-05-21T09:17:02;95052.09;;;27.49;32.54
20027;BME280;10174;42.688;23.344;2023-05-21T09:19:27;95041.13;;;27.98;31.09
20027;BME280;10174;42.688;23.344;2023-05-21T09:22:00;95053.44;;;29.80;27.81
20027;BME280;10174;42.688;23.344;2023-05-21T09:24:29;95060.56;;;31.67;26.32
20027;BME280;10174;42.688;23.344;2023-05-21T09:26:56;95062.97;;;32.66;25.18
20027;BME280;10174;42.688;23.344;2023-05-21T09:29:23;95052.22;;;31.70;25.85
20027;BME280;10174;42.688;23.344;2023-05-21T09:31:50;95055.41;;;30.69;26.12
20027;BME280;10174;42.688;23.344;2023-05-21T09:34:16;95051.91;;;30.22;26.28
20027;BME280;10174;42.688;23.344;2023-05-21T09:36:41;94952.19;;;28.22;29.38
20027;BME280;10174;42.688;23.344;2023-05-21T09:39:08;95041.38;;;28.34;28.84
20027;BME280;10174;42.688;23.344;2023-05-21T09:41:36;95059.25;;;29.31;27.54
20027;BME280;10174;42.688;23.344;2023-05-21T09:44:01;95064.53;;;30.23;26.98
20027;BME280;10174;42.688;23.344;2023-05-21T09:46:36;95002.84;;;30.19;25.94
20027;BME280;10174;42.688;23.344;2023-05-21T09:49:01;95049.59;;;31.41;25.18
20027;BME280;10174;42.688;23.344;2023-05-21T09:51:27;95036.38;;;31.67;24.86
20027;BME280;10174;42.688;23.344;2023-05-21T09:53:55;95046.16;;;31.16;24.95
20027;BME280;10174;42.688;23.344;2023-05-21T09:56:25;95046.75;;;32.95;22.66
20027;BME280;10174;42.688;23.344;2023-05-21T09:58:55;95029.59;;;31.75;24.57
20027;BME280;10174;42.688;23.344;2023-05-21T10:01:22;95032.84;;;32.16;23.92
20027;BME280;10174;42.688;23.344;2023-05-21T10:03:56;95037.31;;;32.47;22.30
20027;BME280;10174;42.688;23.344;2023-05-21T10:06:29;95038.00;;;33.31;21.13
20027;BME280;10174;42.688;23.344;2023-05-21T10:08:56;95020.41;;;33.07;22.02
20027;BME280;10174;42.688;23.344;2023-05-21T10:11:25;94968.47;;;33.82;21.27
20027;BME280;10174;42.688;23.344;2023-05-21T10:13:59;95028.00;;;33.65;21.81
20027;BME280;10174;42.688;23.344;2023-05-21T10:16:25;95023.91;;;32.80;22.63
20027;BME280;10174;42.688;23.344;2023-05-21T10:18:52;95020.06;;;31.76;22.70
20027;BME280;10174;42.688;23.344;2023-05-21T10:21:20;95017.44;;;30.59;24.90
20027;BME280;10174;42.688;23.344;2023-05-21T10:23:47;95008.78;;;28.57;27.37
20027;BME280;10174;42.688;23.344;2023-05-21T10:26:14;95032.72;;;27.42;28.77
20027;BME280;10174;42.688;23.344;2023-05-21T10:28:40;95034.56;;;28.17;27.82
20027;BME280;10174;42.688;23.344;2023-05-21T10:31:06;95002.81;;;28.48;27.10
20027;BME280;10174;42.688;23.344;2023-05-21T10:33:34;95021.38;;;27.96;28.60
20027;BME280;10174;42.688;23.344;2023-05-21T10:36:00;95011.69;;;27.71;28.61
20027;BME280;10174;42.688;23.344;2023-05-21T10:38:26;95021.69;;;27.87;28.63
20027;BME280;10174;42.688;23.344;2023-05-21T10:40:52;95015.31;;;28.28;28.21
20027;BME280;10174;42.688;23.344;2023-05-21T10:54:26;95017.84;;;26.82;30.14
20027;BME280;10174;42.688;23.344;2023-05-21T10:57:21;95002.66;;;25.16;32.97
20027;BME280;10174;42.688;23.344;2023-05-21T10:59:53;95020.19;;;25.07;33.48
20027;BME280;10174;42.688;23.344;2023-05-21T11:02:19;95027.84;;;24.79;34.68
20027;BME280;10174;42.688;23.344;2023-05-21T11:04:46;95031.91;;;23.82;34.86
20027;BME280;10174;42.688;23.344;2023-05-21T11:07:14;95022.81;;;23.62;36.76
20027;BME280;10174;42.688;23.344;2023-05-21T11:09:39;94963.00;;;22.88;36.54
20027;BME280;10174;42.688;23.344;2023-05-21T11:12:05;95012.41;;;22.79;38.21
20027;BME280;10174;42.688;23.344;2023-05-21T11:14:38;95021.53;;;22.83;38.56
20027;BME280;10174;42.688;23.344;2023-05-21T11:17:35;95012.47;;;22.67;39.82
20027;BME280;10174;42.688;23.344;2023-05-21T11:20:06;95015.16;;;22.79;39.88
20027;BME280;10174;42.688;23.344;2023-05-21T11:22:34;95011.78;;;23.90;36.08
20027;BME280;10174;42.688;23.344;2023-05-21T11:25:01;94992.53;;;24.42;35.58
20027;BME280;10174;42.688;23.344;2023-05-21T11:30:04;94985.75;;;23.36;38.44
20027;BME280;10174;42.688;23.344;2023-05-21T11:32:30;94986.88;;;23.03;40.14
20027;BME280;10174;42.688;23.344;2023-05-21T11:34:59;94998.03;;;22.82;39.29
20027;BME280;10174;42.688;23.344;2023-05-21T11:37:27;95002.94;;;22.48;39.73
20027;BME280;10174;42.688;23.344;2023-05-21T11:39:55;95000.59;;;22.34;41.43
20027;BME280;10174;42.688;23.344;2023-05-21T11:42:37;95001.63;;;22.17;40.95
20027;BME280;10174;42.688;23.344;2023-05-21T11:45:03;95002.00;;;21.79;41.33
20027;BME280;10174;42.688;23.344;2023-05-21T11:47:29;94959.31;;;21.62;41.08
20027;BME280;10174;42.688;23.344;2023-05-21T11:49:58;94984.66;;;22.12;42.52
20027;BME280;10174;42.688;23.344;2023-05-21T11:52:23;94989.13;;;22.04;42.80
20027;BME280;10174;42.688;23.344;2023-05-21T11:54:52;94976.22;;;22.04;40.24
20027;BME280;10174;42.688;23.344;2023-05-21T11:57:22;94918.75;;;21.39;44.21
20027;BME280;10174;42.688;23.344;2023-05-21T11:59:48;94967.22;;;21.42;45.03
20027;BME280;10174;42.688;23.344;2023-05-21T12:02:18;94981.81;;;21.34;44.46
20027;BME280;10174;42.688;23.344;2023-05-21T12:04:46;94980.03;;;21.50;43.70
20027;BME280;10174;42.688;23.344;2023-05-21T12:07:13;94983.34;;;21.56;42.85
20027;BME280;10174;42.688;23.344;2023-05-21T12:12:08;94965.19;;;21.27;43.84
20027;BME280;10174;42.688;23.344;2023-05-21T12:14:35;94870.88;;;20.59;44.13
20027;BME280;10174;42.688;23.344;2023-05-21T12:17:02;94967.91;;;21.27;43.65
20027;BME280;10174;42.688;23.344;2023-05-21T12:19:31;94896.50;;;20.79;43.67
20027;BME280;10174;42.688;23.344;2023-05-21T12:22:00;94873.00;;;20.53;44.41
20027;BME280;10174;42.688;23.344;2023-05-21T12:24:26;94974.50;;;21.13;45.58
20027;BME280;10174;42.688;23.344;2023-05-21T12:26:51;94969.97;;;21.30;44.78
20027;BME280;10174;42.688;23.344;2023-05-21T12:29:17;94974.38;;;21.22;45.74
20027;BME280;10174;42.688;23.344;2023-05-21T12:31:47;94976.91;;;21.27;45.96
20027;BME280;10174;42.688;23.344;2023-05-21T12:34:13;94956.28;;;21.17;46.73
20027;BME280;10174;42.688;23.344;2023-05-21T12:36:42;94972.00;;;21.21;46.80
20027;BME280;10174;42.688;23.344;2023-05-21T12:39:13;94934.41;;;20.93;46.37
20027;BME280;10174;42.688;23.344;2023-05-21T12:41:39;94963.94;;;21.12;46.59
20027;BME280;10174;42.688;23.344;2023-05-21T12:44:04;94965.41;;;21.22;45.64
20027;BME280;10174;42.688;23.344;2023-05-21T12:46:30;94944.25;;;21.18;44.28
20027;BME280;10174;42.688;23.344;2023-05-21T12:48:55;94959.72;;;21.39;43.25
20027;BME280;10174;42.688;23.344;2023-05-21T12:51:21;94957.31;;;21.25;44.86
20027;BME280;10174;42.688;23.344;2023-05-21T12:53:46;94947.28;;;21.05;46.15
20027;BME280;10174;42.688;23.344;2023-05-21T12:56:14;94967.44;;;21.12;47.05
20027;BME280;10174;42.688;23.344;2023-05-21T12:58:40;94966.41;;;21.05;47.52